createdAt,value
2019-03-15T00:01:09.741Z,89.52
2019-03-15T00:03:37.037Z,89.33
2019-03-15T00:06:04.379Z,89.16
2019-03-15T00:08:31.767Z,89.03
2019-03-15T00:10:59.101Z,89.40
2019-03-15T00:13:26.402Z,90.13
2019-03-15T00:15:53.718Z,90.89
2019-03-15T00:18:21.038Z,91.15
2019-03-15T00:20:48.517Z,90.48
2019-03-15T00:23:15.882Z,90.64
2019-03-15T00:25:43.180Z,91.06
2019-03-15T00:28:11.457Z,91.24
2019-03-15T00:30:38.779Z,91.57
2019-03-15T00:33:06.118Z,91.42
2019-03-15T00:35:33.542Z,90.79
2019-03-15T00:38:01.014Z,90.16
2019-03-15T00:40:28.317Z,89.73
2019-03-15T00:42:55.637Z,89.70
2019-03-15T00:45:22.977Z,89.65
2019-03-15T00:47:50.318Z,89.47
2019-03-15T00:50:17.677Z,90.02
2019-03-15T00:52:45.037Z,90.24
2019-03-15T00:55:12.368Z,90.45
2019-03-15T00:57:39.691Z,90.36
2019-03-15T01:00:08.976Z,90.75
2019-03-15T01:02:36.634Z,91.07
2019-03-15T01:05:04.541Z,91.10
2019-03-15T01:07:31.897Z,91.09
2019-03-15T01:09:59.192Z,91.43
2019-03-15T01:12:26.558Z,92.17
2019-03-15T01:14:53.909Z,92.45
2019-03-15T01:17:21.225Z,92.36
2019-03-15T01:19:48.556Z,92.49
2019-03-15T01:22:15.901Z,92.42
2019-03-15T01:24:43.173Z,92.40
2019-03-15T01:27:10.503Z,92.28
2019-03-15T01:29:37.901Z,92.49
2019-03-15T01:32:05.202Z,92.25
2019-03-15T01:34:32.525Z,92.76
2019-03-15T01:36:59.819Z,93.11
2019-03-15T01:39:27.284Z,92.79
2019-03-15T01:41:54.577Z,92.64
2019-03-15T01:44:21.883Z,92.76
2019-03-15T01:46:49.254Z,92.87
2019-03-15T01:49:16.592Z,92.65
2019-03-15T01:51:43.941Z,92.54
2019-03-15T01:54:11.299Z,92.80
2019-03-15T01:56:38.677Z,92.95
2019-03-15T01:59:06.035Z,92.74
2019-03-15T02:01:33.361Z,93.09
2019-03-15T02:04:00.730Z,93.31
2019-03-15T02:06:28.090Z,92.98
2019-03-15T02:08:55.439Z,92.70
2019-03-15T02:11:22.764Z,92.69
2019-03-15T02:13:50.103Z,92.92
2019-03-15T02:16:17.419Z,92.99
2019-03-15T02:18:44.712Z,93.00
2019-03-15T02:21:12.056Z,92.81
2019-03-15T02:23:39.396Z,92.71
2019-03-15T02:26:06.673Z,92.76
2019-03-15T02:28:34.022Z,93.07
2019-03-15T02:31:01.464Z,93.11
2019-03-15T02:33:28.761Z,93.11
2019-03-15T02:35:56.057Z,93.11
2019-03-15T02:38:23.397Z,93.14
2019-03-15T02:40:50.758Z,93.05
2019-03-15T02:43:19.113Z,92.89
2019-03-15T02:45:46.621Z,92.55
2019-03-15T02:48:13.919Z,91.78
2019-03-15T02:50:41.200Z,91.27
2019-03-15T02:53:09.150Z,91.29
2019-03-15T02:55:36.636Z,91.70
2019-03-15T02:58:03.940Z,91.58
2019-03-15T03:00:31.273Z,91.82
2019-03-15T03:02:58.658Z,91.58
2019-03-15T03:05:25.943Z,91.20
2019-03-15T03:07:53.245Z,90.94
2019-03-15T03:10:20.587Z,91.15
2019-03-15T03:12:47.876Z,91.77
2019-03-15T03:15:15.196Z,92.00
2019-03-15T03:17:42.543Z,92.36
2019-03-15T03:20:09.993Z,92.68
2019-03-15T03:22:37.287Z,92.81
2019-03-15T03:25:04.758Z,93.06
2019-03-15T03:27:32.069Z,92.96
2019-03-15T03:29:59.352Z,92.97
2019-03-15T03:32:26.708Z,92.81
2019-03-15T03:34:54.001Z,92.58
2019-03-15T03:37:21.311Z,92.72
2019-03-15T03:39:48.703Z,92.89
2019-03-15T03:42:16.040Z,92.85
2019-03-15T03:44:43.303Z,92.74
2019-03-15T03:47:10.739Z,92.90
2019-03-15T03:49:38.076Z,93.03
2019-03-15T03:52:05.352Z,92.83
2019-03-15T03:54:32.695Z,92.95
2019-03-15T03:57:00.136Z,93.06
2019-03-15T03:59:27.492Z,93.29
2019-03-15T04:01:54.844Z,93.27
2019-03-15T04:04:22.239Z,93.15
2019-03-15T04:06:49.552Z,93.04
2019-03-15T04:09:16.876Z,92.88
2019-03-15T04:11:54.875Z,93.00
2019-03-15T04:14:13.436Z,93.19
2019-03-15T04:16:40.776Z,93.27
2019-03-15T04:19:08.051Z,93.04
2019-03-15T04:21:35.401Z,93.26
2019-03-15T04:24:02.719Z,93.28
2019-03-15T04:26:30.080Z,93.31
2019-03-15T04:28:57.412Z,93.33
2019-03-15T04:31:24.726Z,93.11
2019-03-15T04:33:52.038Z,93.01
2019-03-15T04:36:19.375Z,92.88
2019-03-15T04:38:47.396Z,92.41
2019-03-15T04:41:14.731Z,92.46
2019-03-15T04:43:43.011Z,92.81
2019-03-15T04:46:10.317Z,93.12
2019-03-15T04:48:37.873Z,93.17
2019-03-15T04:51:05.186Z,93.08
2019-03-15T04:53:32.513Z,93.13
2019-03-15T04:55:59.817Z,93.05
2019-03-15T04:58:27.156Z,92.86
2019-03-15T05:00:54.442Z,92.98
2019-03-15T05:03:21.778Z,92.82
2019-03-15T05:06:02.075Z,92.93
2019-03-15T05:08:18.240Z,93.12
2019-03-15T05:10:45.598Z,93.30
2019-03-15T05:13:12.900Z,93.43
2019-03-15T05:15:40.240Z,93.25
2019-03-15T05:18:07.704Z,92.90
2019-03-15T05:20:35.194Z,92.60
2019-03-15T05:23:02.474Z,92.65
2019-03-15T05:25:30.127Z,92.67
2019-03-15T05:27:57.813Z,92.78
2019-03-15T05:30:25.176Z,92.80
2019-03-15T05:32:52.517Z,92.94
2019-03-15T05:35:19.907Z,92.93
2019-03-15T05:37:47.222Z,92.87
2019-03-15T05:40:14.561Z,93.23
2019-03-15T05:42:42.036Z,93.38
2019-03-15T05:45:09.505Z,93.26
2019-03-15T05:47:36.742Z,93.15
2019-03-15T05:50:04.956Z,93.13
2019-03-15T05:52:32.312Z,93.22
2019-03-15T05:54:59.670Z,93.27
2019-03-15T05:57:26.994Z,93.37
2019-03-15T05:59:54.318Z,93.25
2019-03-15T06:02:21.774Z,93.22
2019-03-15T06:04:49.119Z,93.32
2019-03-15T06:07:17.734Z,93.43
2019-03-15T06:09:45.137Z,93.20
2019-03-15T06:12:12.449Z,93.00
2019-03-15T06:14:39.837Z,93.03
2019-03-15T06:17:07.204Z,92.93
2019-03-15T06:19:34.531Z,92.90
2019-03-15T06:22:01.858Z,92.85
2019-03-15T06:24:29.196Z,92.47
2019-03-15T06:26:56.473Z,92.28
2019-03-15T06:29:23.893Z,92.54
2019-03-15T06:31:51.257Z,93.05
2019-03-15T06:34:18.588Z,93.17
2019-03-15T06:36:45.899Z,93.23
2019-03-15T06:39:13.246Z,93.34
2019-03-15T06:41:40.566Z,93.36
2019-03-15T06:44:07.932Z,93.44
2019-03-15T06:46:35.257Z,93.28
2019-03-15T06:49:02.778Z,93.02
2019-03-15T06:51:30.071Z,92.56
2019-03-15T06:54:10.544Z,92.13
2019-03-15T06:56:27.764Z,91.87
2019-03-15T06:58:55.399Z,91.72
2019-03-15T07:01:22.805Z,91.92
2019-03-15T07:03:52.317Z,92.06
2019-03-15T07:06:19.604Z,92.06
2019-03-15T07:08:46.979Z,92.14
2019-03-15T07:11:15.823Z,92.32
2019-03-15T07:13:43.153Z,92.41
2019-03-15T07:16:10.477Z,92.69
2019-03-15T07:18:37.765Z,92.79
2019-03-15T07:21:05.098Z,92.60
2019-03-15T07:23:34.555Z,92.67
2019-03-15T07:26:01.875Z,92.53
2019-03-15T07:28:29.198Z,92.51
2019-03-15T07:30:56.517Z,92.63
2019-03-15T07:33:23.857Z,92.71
2019-03-15T07:35:53.671Z,92.72
2019-03-15T07:38:21.065Z,92.74
2019-03-15T07:40:48.431Z,92.80
2019-03-15T07:43:15.731Z,92.57
2019-03-15T07:45:43.067Z,92.15
2019-03-15T07:48:21.633Z,91.23
2019-03-15T07:50:39.674Z,90.81
2019-03-15T07:53:07.010Z,90.54
2019-03-15T07:55:34.523Z,90.79
2019-03-15T07:58:01.781Z,91.22
2019-03-15T08:00:29.169Z,90.79
2019-03-15T08:02:56.503Z,90.69
2019-03-15T08:05:23.827Z,90.84
2019-03-15T08:07:51.134Z,91.13
2019-03-15T08:10:18.426Z,91.13
2019-03-15T08:12:49.190Z,91.03
2019-03-15T08:15:17.179Z,90.82
2019-03-15T08:17:44.551Z,90.57
2019-03-15T08:20:12.684Z,90.22
2019-03-15T08:22:40.027Z,90.29
2019-03-15T08:25:09.982Z,90.54
2019-03-15T08:27:37.346Z,90.78
2019-03-15T08:30:07.007Z,91.00
2019-03-15T08:32:34.366Z,91.06
2019-03-15T08:35:03.890Z,91.07
2019-03-15T08:37:30.917Z,91.22
2019-03-15T08:39:58.313Z,91.00
2019-03-15T08:42:25.676Z,91.28
2019-03-15T08:44:53.006Z,91.37
2019-03-15T08:47:21.739Z,91.42
2019-03-15T08:49:49.357Z,91.34
2019-03-15T08:52:16.699Z,91.51
2019-03-15T08:54:46.667Z,91.64
2019-03-15T08:57:13.568Z,91.46
2019-03-15T08:59:53.808Z,90.96
2019-03-15T09:02:10.168Z,90.70
2019-03-15T09:04:37.509Z,90.91
2019-03-15T09:07:04.865Z,90.90
2019-03-15T09:09:32.181Z,90.91
2019-03-15T09:11:59.506Z,90.99
2019-03-15T09:14:26.837Z,90.90
2019-03-15T09:16:54.243Z,90.76
2019-03-15T09:19:21.537Z,90.91
2019-03-15T09:21:48.897Z,90.54
2019-03-15T09:24:16.261Z,90.51
2019-03-15T09:26:43.704Z,90.66
2019-03-15T09:29:11.005Z,90.60
2019-03-15T09:31:47.482Z,90.92
2019-03-15T09:34:07.817Z,90.71
2019-03-15T09:36:49.037Z,90.44
2019-03-15T09:39:05.981Z,90.21
2019-03-15T09:41:39.480Z,90.05
2019-03-15T09:44:02.931Z,90.32
2019-03-15T09:46:30.594Z,90.45
2019-03-15T09:48:59.806Z,90.66
2019-03-15T09:51:27.706Z,91.01
2019-03-15T09:53:55.008Z,91.32
2019-03-15T09:56:22.385Z,91.74
2019-03-15T09:58:49.697Z,91.69
2019-03-15T10:01:33.606Z,91.71
2019-03-15T10:03:46.336Z,91.82
2019-03-15T10:06:16.543Z,92.12
2019-03-15T10:08:42.981Z,92.16
2019-03-15T10:11:10.365Z,92.13
2019-03-15T10:13:37.691Z,92.16
2019-03-15T10:16:05.097Z,92.11
2019-03-15T10:18:32.414Z,92.16
2019-03-15T10:20:59.779Z,92.05
2019-03-15T10:23:29.741Z,91.93
2019-03-15T10:25:57.091Z,91.73
2019-03-15T10:28:24.407Z,92.07
2019-03-15T10:30:51.780Z,91.91
2019-03-15T10:33:19.204Z,91.86
2019-03-15T10:35:46.509Z,91.72
2019-03-15T10:38:16.562Z,91.64
2019-03-15T10:40:43.132Z,91.77
2019-03-15T10:43:10.466Z,91.65
2019-03-15T10:45:37.817Z,91.73
2019-03-15T10:48:07.909Z,91.85
2019-03-15T10:50:34.419Z,91.91
2019-03-15T10:53:01.797Z,91.94
2019-03-15T10:55:29.177Z,91.73
2019-03-15T10:57:56.617Z,91.78
2019-03-15T11:00:24.112Z,91.74
2019-03-15T11:02:51.447Z,91.71
2019-03-15T11:05:18.871Z,91.74
2019-03-15T11:07:46.202Z,91.83
2019-03-15T11:10:13.574Z,91.87
2019-03-15T11:12:41.071Z,91.83
2019-03-15T11:15:08.709Z,92.05
2019-03-15T11:17:36.085Z,92.01
2019-03-15T11:20:03.705Z,91.99
2019-03-15T11:22:31.154Z,91.90
2019-03-15T11:24:59.800Z,92.04
2019-03-15T11:27:27.172Z,92.11
2019-03-15T11:29:54.531Z,91.94
2019-03-15T11:32:21.880Z,91.93
2019-03-15T11:34:49.338Z,91.91
2019-03-15T11:37:16.672Z,91.99
2019-03-15T11:39:44.051Z,92.05
2019-03-15T11:42:11.398Z,92.09
2019-03-15T11:44:38.739Z,92.19
2019-03-15T11:47:06.257Z,92.18
2019-03-15T11:49:33.750Z,92.07
2019-03-15T11:52:01.193Z,92.01
2019-03-15T11:54:28.692Z,92.07
2019-03-15T11:56:56.088Z,92.07
2019-03-15T11:59:23.457Z,92.08
2019-03-15T12:02:03.155Z,92.19
2019-03-15T12:04:20.152Z,92.02
2019-03-15T12:06:47.499Z,91.93
2019-03-15T12:09:14.971Z,92.03
2019-03-15T12:11:42.331Z,91.95
2019-03-15T12:14:09.715Z,91.90
2019-03-15T12:16:37.151Z,91.76
2019-03-15T12:19:04.548Z,92.00
2019-03-15T12:21:31.967Z,92.08
2019-03-15T12:23:59.329Z,91.95
2019-03-15T12:26:39.469Z,92.06
2019-03-15T12:28:55.968Z,92.03
2019-03-15T12:31:23.271Z,92.18
2019-03-15T12:33:50.807Z,92.16
2019-03-15T12:36:18.177Z,92.16
2019-03-15T12:38:45.721Z,92.01
2019-03-15T12:41:13.261Z,92.03
2019-03-15T12:43:40.748Z,92.12
2019-03-15T12:46:08.161Z,92.13
2019-03-15T12:48:36.028Z,92.04
2019-03-15T12:51:03.792Z,92.09
2019-03-15T12:53:31.301Z,92.03
2019-03-15T12:55:58.858Z,92.14
2019-03-15T12:58:26.242Z,92.12
2019-03-15T13:00:53.807Z,92.02
2019-03-15T13:03:21.238Z,92.11
2019-03-15T13:05:48.744Z,92.02
2019-03-15T13:08:16.374Z,92.09
2019-03-15T13:10:43.820Z,92.33
2019-03-15T13:13:11.381Z,92.37
2019-03-15T13:15:38.759Z,92.29
2019-03-15T13:18:07.643Z,92.28
2019-03-15T13:20:35.219Z,92.24
2019-03-15T13:23:02.619Z,92.26
2019-03-15T13:25:30.137Z,92.21
2019-03-15T13:27:57.845Z,92.50
2019-03-15T13:30:25.431Z,92.36
2019-03-15T13:32:52.891Z,92.39
2019-03-15T13:35:20.635Z,92.37
2019-03-15T13:37:48.341Z,92.18
2019-03-15T13:40:16.046Z,92.30
2019-03-15T13:42:43.537Z,92.28
2019-03-15T13:45:11.221Z,92.14
2019-03-15T13:47:38.892Z,92.09
2019-03-15T13:50:07.916Z,92.10
2019-03-15T13:52:35.856Z,92.36
2019-03-15T13:55:03.451Z,92.28
2019-03-15T13:57:31.022Z,92.13
2019-03-15T13:59:58.610Z,92.24
2019-03-15T14:02:26.242Z,92.16
2019-03-15T14:04:53.892Z,92.21
2019-03-15T14:07:21.444Z,92.18
2019-03-15T14:09:49.122Z,92.28
2019-03-15T14:12:16.879Z,92.18
2019-03-15T14:14:44.474Z,92.10
2019-03-15T14:17:12.094Z,91.91
2019-03-15T14:19:39.691Z,92.02
2019-03-15T14:22:07.255Z,92.66
2019-03-15T14:24:34.858Z,92.48
2019-03-15T14:27:02.687Z,92.37
2019-03-15T14:29:30.346Z,92.21
2019-03-15T14:31:57.932Z,92.19
2019-03-15T14:34:25.634Z,92.15
2019-03-15T14:36:53.580Z,92.27
2019-03-15T14:39:21.245Z,92.28
2019-03-15T14:41:48.835Z,92.34
2019-03-15T14:44:18.317Z,92.27
2019-03-15T14:46:46.346Z,92.35
2019-03-15T14:49:14.001Z,92.30
2019-03-15T14:51:41.673Z,92.35
2019-03-15T14:54:09.597Z,92.17
2019-03-15T14:56:37.259Z,92.12
2019-03-15T14:59:04.915Z,92.09
2019-03-15T15:01:32.956Z,92.18
2019-03-15T15:04:00.575Z,92.24
2019-03-15T15:06:28.248Z,92.27
2019-03-15T15:08:55.860Z,92.21
2019-03-15T15:11:25.736Z,92.36
2019-03-15T15:13:53.054Z,92.23
2019-03-15T15:16:20.729Z,92.24
2019-03-15T15:18:48.386Z,92.04
2019-03-15T15:21:15.982Z,92.12
2019-03-15T15:23:43.757Z,91.87
2019-03-15T15:26:11.488Z,91.94
2019-03-15T15:28:39.178Z,91.89
2019-03-15T15:31:06.781Z,91.80
2019-03-15T15:33:34.452Z,91.74
2019-03-15T15:36:02.176Z,91.71
2019-03-15T15:38:29.757Z,91.54
2019-03-15T15:40:57.416Z,91.34
2019-03-15T15:43:25.087Z,91.37
2019-03-15T15:45:52.716Z,91.58
2019-03-15T15:48:21.267Z,91.57
2019-03-15T15:50:49.274Z,91.87
2019-03-15T15:53:16.931Z,91.71
2019-03-15T15:55:45.116Z,91.70
2019-03-15T15:58:17.968Z,91.80
2019-03-15T16:00:42.499Z,91.85
2019-03-15T16:03:10.148Z,91.80
2019-03-15T16:05:37.815Z,91.64
2019-03-15T16:08:05.631Z,91.64
2019-03-15T16:10:33.384Z,91.71
2019-03-15T16:13:02.794Z,91.63
2019-03-15T16:15:31.132Z,91.66
2019-03-15T16:17:58.839Z,91.44
2019-03-15T16:20:26.473Z,91.58
2019-03-15T16:22:54.137Z,91.38
2019-03-15T16:25:21.798Z,91.38
2019-03-15T16:27:49.810Z,91.24
2019-03-15T16:30:17.662Z,91.61
2019-03-15T16:32:45.319Z,91.14
2019-03-15T16:35:13.196Z,91.16
2019-03-15T16:37:43.697Z,91.19
2019-03-15T16:40:11.714Z,91.01
2019-03-15T16:42:39.362Z,90.95
2019-03-15T16:45:09.725Z,90.79
2019-03-15T16:47:37.512Z,91.19
2019-03-15T16:50:06.644Z,90.74
2019-03-15T16:52:34.379Z,90.99
2019-03-15T16:55:02.094Z,91.19
2019-03-15T16:57:29.711Z,91.22
2019-03-15T16:59:58.545Z,91.49
2019-03-15T17:02:26.220Z,91.22
2019-03-15T17:04:53.936Z,91.12
2019-03-15T17:07:21.698Z,91.17
2019-03-15T17:09:50.576Z,91.37
2019-03-15T17:12:18.408Z,91.46
2019-03-15T17:14:46.109Z,91.25
2019-03-15T17:17:13.893Z,91.26
2019-03-15T17:19:41.581Z,91.25
2019-03-15T17:22:09.302Z,91.34
2019-03-15T17:24:37.075Z,91.16
2019-03-15T17:27:04.840Z,90.99
2019-03-15T17:29:32.512Z,91.23
2019-03-15T17:32:00.246Z,91.23
2019-03-15T17:34:28.033Z,91.36
2019-03-15T17:37:06.065Z,91.24
2019-03-15T17:39:25.533Z,91.21
2019-03-15T17:41:53.593Z,91.18
2019-03-15T17:44:21.272Z,91.29
2019-03-15T17:46:49.261Z,91.51
2019-03-15T17:49:17.261Z,91.23
2019-03-15T17:51:45.488Z,91.34
2019-03-15T17:54:14.269Z,91.58
2019-03-15T17:56:42.133Z,91.41
2019-03-15T17:59:12.610Z,91.63
2019-03-15T18:01:39.550Z,91.85
2019-03-15T18:04:07.493Z,91.68
2019-03-15T18:06:35.934Z,91.63
2019-03-15T18:09:05.342Z,91.56
2019-03-15T18:11:35.876Z,91.48
2019-03-15T18:14:05.000Z,91.38
2019-03-15T18:19:21.656Z,91.68
2019-03-15T18:21:49.424Z,91.80
2019-03-15T18:24:17.536Z,91.72
2019-03-15T18:26:45.446Z,91.68
2019-03-15T18:29:25.850Z,91.42
2019-03-15T18:31:42.804Z,91.71
2019-03-15T18:34:10.759Z,91.46
2019-03-15T18:36:38.589Z,91.43
2019-03-15T18:39:08.074Z,91.69
2019-03-15T18:41:37.324Z,91.73
2019-03-15T18:44:04.983Z,91.28
2019-03-15T18:46:32.777Z,91.02
2019-03-15T18:49:00.488Z,91.05
2019-03-15T18:51:29.796Z,91.16
2019-03-15T18:53:58.878Z,91.30
2019-03-15T18:56:28.031Z,91.11
2019-03-15T18:58:55.960Z,91.47
2019-03-15T19:01:24.467Z,91.84
2019-03-15T19:03:52.415Z,91.80
2019-03-15T19:06:20.155Z,92.34
2019-03-15T19:08:47.875Z,91.90
2019-03-15T19:11:16.057Z,91.98
2019-03-15T19:13:43.746Z,91.75
2019-03-15T19:16:20.015Z,92.05
2019-03-15T19:18:41.631Z,91.54
2019-03-15T19:21:09.596Z,91.59
2019-03-15T19:23:37.492Z,91.50
2019-03-15T19:26:05.639Z,91.80
2019-03-15T19:28:34.464Z,92.09
2019-03-15T19:31:02.374Z,92.25
2019-03-15T19:33:30.184Z,92.37
2019-03-15T19:35:57.864Z,92.19
2019-03-15T19:38:26.035Z,92.56
2019-03-15T19:40:54.599Z,92.53
2019-03-15T19:43:22.391Z,92.60
2019-03-15T19:45:50.035Z,92.58
2019-03-15T19:48:18.822Z,92.18
2019-03-15T19:50:49.101Z,91.63
2019-03-15T19:53:16.901Z,91.50
2019-03-15T19:55:46.242Z,91.42
2019-03-15T19:58:14.792Z,91.72
2019-03-15T20:00:42.510Z,92.16
2019-03-15T20:03:10.128Z,92.12
2019-03-15T20:05:37.962Z,92.28
2019-03-15T20:08:05.762Z,92.48
2019-03-15T20:10:33.909Z,92.30
2019-03-15T20:13:05.771Z,92.17
2019-03-15T20:15:33.533Z,92.46
2019-03-15T20:21:50.851Z,92.15
2019-03-15T20:24:18.859Z,91.80
2019-03-15T20:30:02.015Z,91.45
2019-03-15T20:33:13.156Z,91.25
2019-03-15T20:35:46.008Z,91.38
2019-03-15T20:38:14.243Z,90.89
2019-03-15T20:40:42.352Z,90.39
2019-03-15T20:43:10.370Z,90.29
2019-03-15T20:45:38.390Z,90.98
2019-03-15T20:48:06.148Z,91.63
2019-03-15T20:50:46.217Z,91.48
2019-03-15T20:53:09.775Z,91.69
2019-03-15T20:55:38.014Z,90.06
2019-03-15T20:58:06.054Z,90.16
2019-03-15T21:00:35.826Z,90.54
2019-03-15T21:03:04.497Z,90.48
2019-03-15T21:05:32.154Z,90.48
2019-03-15T21:08:00.946Z,89.91
2019-03-15T21:10:29.901Z,89.90
2019-03-15T21:12:57.624Z,90.21
2019-03-15T21:15:25.346Z,90.86
2019-03-15T21:17:53.065Z,90.38
2019-03-15T21:20:22.536Z,90.39
2019-03-15T21:22:50.485Z,90.24
2019-03-15T21:25:19.942Z,89.91
2019-03-15T21:27:54.191Z,89.69
2019-03-15T21:30:17.587Z,89.98
2019-03-15T21:32:45.182Z,89.70
2019-03-15T21:35:12.909Z,90.31
2019-03-15T21:37:40.835Z,90.33
2019-03-15T21:40:09.440Z,90.20
2019-03-15T21:42:40.152Z,90.03
2019-03-15T21:45:08.100Z,89.77
2019-03-15T21:47:35.622Z,88.84
2019-03-15T21:50:06.677Z,88.79
2019-03-15T21:52:34.372Z,88.17
2019-03-15T21:55:02.003Z,88.94
2019-03-15T21:57:29.662Z,89.08
2019-03-15T21:59:57.599Z,88.29
2019-03-15T22:02:25.221Z,88.73
2019-03-15T22:04:52.977Z,88.07
2019-03-15T22:07:20.403Z,88.40
2019-03-15T22:09:47.771Z,87.65
2019-03-15T22:12:15.235Z,88.17
2019-03-15T22:14:42.597Z,87.65
2019-03-15T22:17:09.919Z,87.27
2019-03-15T22:19:37.283Z,86.66
2019-03-15T22:22:04.598Z,88.67
2019-03-15T22:24:31.936Z,89.47
2019-03-15T22:26:59.280Z,89.46
2019-03-15T22:29:27.756Z,88.76
2019-03-15T22:31:55.182Z,90.77
2019-03-15T22:34:22.627Z,91.39
2019-03-15T22:36:49.945Z,92.35
2019-03-15T22:39:17.296Z,92.61
2019-03-15T22:41:44.697Z,92.71
2019-03-15T22:44:12.033Z,92.40
2019-03-15T22:46:39.307Z,91.58
2019-03-15T22:49:06.616Z,91.47
2019-03-15T22:51:33.991Z,92.23
2019-03-15T22:54:01.315Z,92.58
2019-03-15T22:56:28.607Z,92.73
2019-03-15T22:58:55.957Z,93.06
2019-03-15T23:01:30.265Z,93.15
2019-03-15T23:03:52.513Z,93.28
2019-03-15T23:06:19.951Z,93.31
2019-03-15T23:08:47.566Z,93.45
2019-03-15T23:11:16.335Z,93.56
2019-03-15T23:13:43.716Z,93.53
2019-03-15T23:16:11.055Z,93.53
2019-03-15T23:18:38.374Z,93.61
2019-03-15T23:21:05.683Z,93.46
2019-03-15T23:23:32.984Z,93.37
2019-03-15T23:26:00.346Z,93.59
2019-03-15T23:28:27.765Z,93.60
2019-03-15T23:30:55.076Z,93.44
2019-03-15T23:33:22.505Z,93.23
2019-03-15T23:35:54.182Z,93.36
2019-03-15T23:38:20.736Z,93.56
2019-03-15T23:40:48.070Z,93.87
2019-03-15T23:43:15.395Z,93.82
2019-03-15T23:45:42.680Z,93.78
2019-03-15T23:48:10.013Z,93.92
2019-03-15T23:50:37.415Z,93.87
2019-03-15T23:53:04.756Z,93.70
2019-03-15T23:55:32.055Z,93.82
2019-03-15T23:57:59.316Z,93.96
